createdAt,value
2022-12-18T00:01:44.531Z,46.13
2022-12-18T00:04:23.996Z,63.03
2022-12-18T00:06:50.648Z,50.23
2022-12-18T00:09:17.141Z,57.03
2022-12-18T00:11:43.748Z,55.70
2022-12-18T00:14:10.386Z,54.73
2022-12-18T00:16:38.046Z,55.27
2022-12-18T00:19:04.819Z,55.33
2022-12-18T00:21:31.640Z,65.17
2022-12-18T00:23:58.221Z,67.67
2022-12-18T00:26:34.257Z,59.17
2022-12-18T00:29:01.228Z,52.30
2022-12-18T00:31:28.404Z,54.37
2022-12-18T00:33:55.995Z,52.20
2022-12-18T00:36:23.613Z,48.30
2022-12-18T00:38:50.133Z,53.53
2022-12-18T00:41:35.305Z,51.83
2022-12-18T00:44:01.993Z,49.40
2022-12-18T00:46:28.483Z,54.67
2022-12-18T00:48:55.023Z,53.90
2022-12-18T00:51:21.610Z,53.10
2022-12-18T00:53:48.050Z,58.37
2022-12-18T00:56:14.576Z,57.07
2022-12-18T00:58:40.990Z,60.93
2022-12-18T01:01:07.817Z,66.07
2022-12-18T01:03:34.255Z,66.93
2022-12-18T01:06:00.722Z,60.17
2022-12-18T01:08:27.296Z,57.73
2022-12-18T01:10:53.758Z,53.33
2022-12-18T01:13:20.228Z,55.97
2022-12-18T01:15:52.874Z,57.47
2022-12-18T01:18:19.483Z,55.27
2022-12-18T01:20:45.993Z,55.07
2022-12-18T01:23:12.473Z,54.97
2022-12-18T01:25:39.091Z,55.73
2022-12-18T01:28:05.754Z,61.87
2022-12-18T01:30:32.195Z,53.37
2022-12-18T01:32:58.709Z,56.73
2022-12-18T01:35:25.166Z,56.20
2022-12-18T01:37:55.012Z,56.43
2022-12-18T01:40:21.549Z,53.73
2022-12-18T01:42:54.230Z,55.00
2022-12-18T01:45:30.565Z,58.37
2022-12-18T01:47:57.213Z,52.63
2022-12-18T01:50:25.146Z,57.40
2022-12-18T01:52:55.367Z,58.13
2022-12-18T01:55:22.930Z,60.07
2022-12-18T01:57:49.368Z,56.17
2022-12-18T02:00:16.774Z,48.23
2022-12-18T02:02:43.477Z,54.67
2022-12-18T02:05:10.356Z,48.17
2022-12-18T02:07:50.565Z,49.53
2022-12-18T02:10:20.609Z,53.77
2022-12-18T02:13:02.548Z,52.17
2022-12-18T02:15:32.167Z,52.20
2022-12-18T02:17:59.640Z,56.50
2022-12-18T02:20:36.496Z,53.23
2022-12-18T02:23:02.906Z,52.00
2022-12-18T02:25:35.410Z,49.23
2022-12-18T02:28:02.742Z,45.93
2022-12-18T02:30:30.377Z,50.50
2022-12-18T02:32:56.866Z,54.13
2022-12-18T02:35:24.956Z,54.93
2022-12-18T02:37:51.383Z,53.63
2022-12-18T02:40:17.917Z,60.00
2022-12-18T02:42:44.378Z,56.93
2022-12-18T02:45:11.108Z,58.53
2022-12-18T02:47:38.128Z,57.20
2022-12-18T02:50:04.632Z,55.93
2022-12-18T02:52:31.097Z,56.00
2022-12-18T02:55:10.017Z,60.90
2022-12-18T02:57:56.829Z,53.77
2022-12-18T03:00:34.509Z,62.53
2022-12-18T03:03:05.414Z,57.90
2022-12-18T03:05:39.888Z,61.90
2022-12-18T03:08:11.376Z,61.40
2022-12-18T03:10:41.260Z,64.90
2022-12-18T03:13:11.876Z,59.83
2022-12-18T03:15:38.993Z,57.50
2022-12-18T03:18:06.487Z,62.30
2022-12-18T03:20:33.212Z,58.63
2022-12-18T03:23:02.291Z,59.77
2022-12-18T03:25:28.731Z,60.07
2022-12-18T03:27:56.099Z,71.43
2022-12-18T03:30:22.550Z,66.27
2022-12-18T03:32:52.742Z,69.83
2022-12-18T03:35:22.703Z,60.73
2022-12-18T03:37:49.157Z,61.73
2022-12-18T03:40:15.683Z,61.53
2022-12-18T03:42:42.148Z,63.57
2022-12-18T03:45:09.125Z,61.33
2022-12-18T03:47:45.146Z,60.93
2022-12-18T03:50:12.976Z,63.70
2022-12-18T03:52:41.926Z,67.60
2022-12-18T03:55:08.375Z,60.83
2022-12-18T03:57:35.150Z,68.53
2022-12-18T04:00:02.742Z,59.93
2022-12-18T04:02:31.102Z,59.47
2022-12-18T04:04:58.262Z,60.53
2022-12-18T04:07:24.746Z,67.57
2022-12-18T04:09:51.458Z,60.93
2022-12-18T04:12:17.936Z,56.43
2022-12-18T04:14:44.377Z,63.07
2022-12-18T04:17:10.881Z,65.27
2022-12-18T04:19:37.471Z,62.70
2022-12-18T04:22:03.943Z,58.13
2022-12-18T04:24:30.398Z,62.07
2022-12-18T04:26:56.846Z,66.90
2022-12-18T04:29:23.306Z,67.60
2022-12-18T04:31:49.730Z,61.47
2022-12-18T04:34:16.290Z,60.83
2022-12-18T04:36:42.741Z,64.50
2022-12-18T04:39:09.184Z,66.90
2022-12-18T04:41:35.607Z,71.53
2022-12-18T04:44:02.174Z,69.73
2022-12-18T04:46:28.699Z,71.90
2022-12-18T04:48:55.351Z,65.27
2022-12-18T04:51:26.357Z,72.63
2022-12-18T04:53:53.447Z,69.63
2022-12-18T04:56:19.899Z,70.10
2022-12-18T04:58:46.434Z,67.37
2022-12-18T05:01:15.466Z,70.63
2022-12-18T05:03:42.525Z,65.13
2022-12-18T05:06:09.365Z,69.87
2022-12-18T05:08:35.959Z,70.67
2022-12-18T05:11:03.120Z,71.63
2022-12-18T05:13:29.691Z,65.67
2022-12-18T05:15:56.246Z,76.73
2022-12-18T05:18:23.508Z,71.00
2022-12-18T05:20:50.511Z,74.77
2022-12-18T05:23:16.986Z,76.93
2022-12-18T05:25:43.469Z,76.13
2022-12-18T05:28:09.904Z,76.13
2022-12-18T05:30:36.367Z,77.13
2022-12-18T05:33:02.794Z,70.37
2022-12-18T05:35:29.264Z,74.80
2022-12-18T05:37:56.203Z,81.50
2022-12-18T05:40:22.642Z,71.70
2022-12-18T05:42:49.073Z,69.10
2022-12-18T05:45:15.682Z,76.23
2022-12-18T05:47:42.155Z,80.33
2022-12-18T05:50:08.744Z,78.67
2022-12-18T05:52:35.365Z,71.47
2022-12-18T05:55:01.800Z,74.10
2022-12-18T05:57:28.281Z,74.47
2022-12-18T05:59:54.798Z,86.03
2022-12-18T06:02:22.183Z,75.33
2022-12-18T06:04:48.727Z,88.33
2022-12-18T06:07:15.212Z,82.30
2022-12-18T06:09:41.658Z,74.73
2022-12-18T06:12:08.169Z,78.80
2022-12-18T06:14:34.630Z,81.37
2022-12-18T06:17:01.093Z,105.73
2022-12-18T06:19:27.511Z,104.37
2022-12-18T06:21:54.243Z,92.60
2022-12-18T06:24:20.674Z,97.93
2022-12-18T06:26:47.141Z,91.80
2022-12-18T06:29:13.678Z,101.90
2022-12-18T06:31:41.052Z,87.57
2022-12-18T06:34:07.551Z,89.33
2022-12-18T06:36:33.998Z,85.43
2022-12-18T06:39:00.563Z,88.70
2022-12-18T06:41:27.065Z,90.70
2022-12-18T06:43:58.180Z,87.87
2022-12-18T06:46:26.154Z,73.33
2022-12-18T06:48:52.629Z,87.97
2022-12-18T06:51:22.592Z,86.77
2022-12-18T06:53:49.322Z,89.47
2022-12-18T06:56:15.839Z,84.07
2022-12-18T06:58:42.309Z,89.03
2022-12-18T07:01:09.648Z,88.57
2022-12-18T07:03:36.320Z,86.70
2022-12-18T07:06:02.874Z,88.97
2022-12-18T07:08:29.962Z,76.90
2022-12-18T07:10:56.650Z,88.03
2022-12-18T07:13:23.304Z,80.00
2022-12-18T07:15:49.970Z,88.00
2022-12-18T07:18:16.495Z,89.27
2022-12-18T07:20:43.021Z,94.63
2022-12-18T07:23:09.506Z,90.93
2022-12-18T07:25:36.325Z,91.30
2022-12-18T07:28:02.858Z,84.63
2022-12-18T07:30:29.914Z,95.53
2022-12-18T07:32:56.500Z,91.97
2022-12-18T07:35:25.220Z,88.03
2022-12-18T07:37:52.356Z,85.17
2022-12-18T07:40:18.891Z,92.50
2022-12-18T07:42:45.384Z,93.97
2022-12-18T07:45:12.046Z,97.30
2022-12-18T07:47:38.709Z,86.30
2022-12-18T07:50:05.755Z,87.13
2022-12-18T07:52:32.290Z,85.10
2022-12-18T07:54:59.559Z,88.57
2022-12-18T08:00:13.402Z,93.27
2022-12-18T08:02:40.040Z,92.00
2022-12-18T08:05:06.678Z,91.30
2022-12-18T08:07:33.932Z,90.57
2022-12-18T08:10:00.361Z,89.67
2022-12-18T08:12:26.898Z,96.03
2022-12-18T08:14:53.359Z,93.97
2022-12-18T08:17:20.487Z,91.80
2022-12-18T08:19:46.976Z,114.03
2022-12-18T08:22:13.452Z,105.60
2022-12-18T08:24:39.893Z,116.33
2022-12-18T08:27:28.418Z,92.43
2022-12-18T08:29:52.829Z,102.60
2022-12-18T08:32:19.311Z,103.67
2022-12-18T08:34:45.827Z,90.03
2022-12-18T08:37:12.364Z,93.93
2022-12-18T08:39:38.851Z,89.50
2022-12-18T08:42:24.022Z,92.10
2022-12-18T08:44:50.481Z,89.90
2022-12-18T08:47:17.012Z,95.10
2022-12-18T08:49:43.576Z,88.17
2022-12-18T08:52:10.035Z,87.53
2022-12-18T08:54:36.496Z,91.27
2022-12-18T08:57:03.283Z,83.10
2022-12-18T08:59:30.079Z,85.43
2022-12-18T09:01:56.789Z,88.63
2022-12-18T09:04:23.377Z,92.53
2022-12-18T09:06:49.953Z,89.43
2022-12-18T09:09:16.406Z,79.70
2022-12-18T09:11:42.881Z,78.77
2022-12-18T09:14:09.651Z,78.90
2022-12-18T09:16:36.660Z,86.03
2022-12-18T09:19:03.879Z,78.00
2022-12-18T09:21:36.765Z,88.07
2022-12-18T09:24:04.381Z,78.60
2022-12-18T09:26:34.202Z,82.67
2022-12-18T09:29:02.165Z,77.67
2022-12-18T09:31:29.207Z,75.80
2022-12-18T09:33:56.481Z,71.80
2022-12-18T09:36:22.962Z,68.77
2022-12-18T09:38:49.469Z,81.10
2022-12-18T09:41:34.919Z,65.83
2022-12-18T09:44:24.812Z,76.20
2022-12-18T09:46:57.495Z,68.67
2022-12-18T09:49:24.721Z,74.13
2022-12-18T09:51:52.401Z,74.17
2022-12-18T09:54:27.218Z,72.57
2022-12-18T09:56:54.411Z,70.23
2022-12-18T09:59:20.851Z,76.53
2022-12-18T10:01:47.616Z,72.63
2022-12-18T10:04:14.334Z,62.23
2022-12-18T10:06:44.094Z,62.03
2022-12-18T10:09:16.792Z,69.00
2022-12-18T10:11:49.562Z,70.30
2022-12-18T10:14:24.774Z,71.57
2022-12-18T10:16:57.334Z,65.57
2022-12-18T10:19:23.777Z,64.57
2022-12-18T10:21:52.844Z,67.93
2022-12-18T10:24:25.523Z,67.60
2022-12-18T10:26:52.412Z,65.17
2022-12-18T10:29:18.913Z,70.03
2022-12-18T10:31:45.432Z,73.50
2022-12-18T10:34:12.450Z,67.93
2022-12-18T10:36:39.052Z,75.17
2022-12-18T10:39:15.291Z,79.47
2022-12-18T10:41:41.820Z,77.50
2022-12-18T10:44:23.732Z,72.23
2022-12-18T10:46:57.090Z,65.23
2022-12-18T10:49:27.593Z,64.63
2022-12-18T10:52:14.304Z,58.27
2022-12-18T10:54:40.802Z,58.83
2022-12-18T10:57:37.061Z,55.43
2022-12-18T11:00:23.012Z,57.00
2022-12-18T11:02:49.611Z,49.03
2022-12-18T11:05:30.600Z,53.20
2022-12-18T11:07:57.342Z,55.20
2022-12-18T11:10:28.417Z,61.83
2022-12-18T11:12:56.138Z,61.70
2022-12-18T11:15:24.593Z,56.73
2022-12-18T11:17:51.262Z,56.27
2022-12-18T11:20:38.179Z,58.03
2022-12-18T11:23:06.752Z,56.63
2022-12-18T11:25:35.128Z,56.97
2022-12-18T11:28:06.295Z,65.17
2022-12-18T11:30:36.760Z,57.90
2022-12-18T11:33:14.370Z,63.47
2022-12-18T11:35:43.936Z,55.33
2022-12-18T11:38:17.062Z,57.63
2022-12-18T11:40:44.559Z,54.17
2022-12-18T11:43:12.407Z,45.13
2022-12-18T11:45:44.290Z,42.70
2022-12-18T11:48:16.867Z,45.97
2022-12-18T11:50:49.177Z,47.43
2022-12-18T11:53:15.672Z,61.63
2022-12-18T11:55:48.612Z,55.03
2022-12-18T11:58:44.810Z,47.00
2022-12-18T12:01:17.813Z,39.77
2022-12-18T12:03:47.463Z,41.80
2022-12-18T12:06:17.338Z,41.80
2022-12-18T12:09:02.823Z,42.27
2022-12-18T12:11:38.843Z,42.80
2022-12-18T12:14:15.745Z,39.23
2022-12-18T12:16:45.251Z,50.83
2022-12-18T12:19:26.834Z,42.57
2022-12-18T12:21:55.560Z,36.87
2022-12-18T12:24:28.591Z,38.73
2022-12-18T12:26:55.064Z,39.70
2022-12-18T12:29:24.534Z,39.53
2022-12-18T12:31:54.173Z,46.00
2022-12-18T12:34:28.472Z,43.13
2022-12-18T12:36:58.008Z,36.20
2022-12-18T12:39:30.333Z,33.90
2022-12-18T12:42:15.515Z,43.20
2022-12-18T12:44:56.256Z,37.07
2022-12-18T12:47:28.013Z,36.73
2022-12-18T12:49:55.005Z,35.47
2022-12-18T12:52:33.700Z,39.57
2022-12-18T12:55:00.234Z,37.33
2022-12-18T12:57:35.126Z,35.93
2022-12-18T13:00:04.683Z,45.17
2022-12-18T13:02:37.421Z,38.27
2022-12-18T13:05:23.115Z,38.03
2022-12-18T13:07:58.610Z,36.13
2022-12-18T13:10:35.781Z,38.67
2022-12-18T13:13:04.905Z,37.63
2022-12-18T13:15:38.600Z,37.00
2022-12-18T13:18:09.772Z,37.23
2022-12-18T13:20:37.241Z,35.87
2022-12-18T13:23:22.736Z,38.47
2022-12-18T13:25:49.396Z,42.60
2022-12-18T13:28:16.897Z,39.27
2022-12-18T13:30:44.263Z,40.93
2022-12-18T13:33:21.019Z,42.17
2022-12-18T13:35:47.715Z,42.20
2022-12-18T13:38:24.127Z,46.47
2022-12-18T13:40:50.545Z,52.17
2022-12-18T13:43:22.902Z,50.40
2022-12-18T13:45:55.680Z,57.13
2022-12-18T13:48:23.557Z,52.30
2022-12-18T13:50:50.710Z,52.03
2022-12-18T13:53:25.805Z,53.90
2022-12-18T13:55:52.440Z,55.60
2022-12-18T13:58:19.062Z,53.70
2022-12-18T14:00:45.577Z,50.53
2022-12-18T14:03:21.797Z,50.63
2022-12-18T14:05:53.232Z,55.43
2022-12-18T14:08:19.727Z,56.87
2022-12-18T14:10:49.746Z,55.83
2022-12-18T14:13:24.258Z,57.50
2022-12-18T14:15:50.708Z,62.30
2022-12-18T14:18:23.458Z,57.37
2022-12-18T14:20:52.875Z,59.33
2022-12-18T14:23:28.833Z,53.40
2022-12-18T14:25:57.012Z,59.50
2022-12-18T14:28:25.130Z,60.60
2022-12-18T14:30:51.720Z,68.57
2022-12-18T14:33:22.550Z,61.50
2022-12-18T14:35:56.222Z,64.93
2022-12-18T14:38:24.501Z,68.40
2022-12-18T14:41:07.030Z,78.23
2022-12-18T14:43:34.326Z,76.87
2022-12-18T14:46:00.823Z,81.40
2022-12-18T14:48:27.458Z,79.97
2022-12-18T14:50:58.136Z,82.67
2022-12-18T14:53:33.088Z,77.03
2022-12-18T14:55:59.531Z,100.30
2022-12-18T14:58:26.042Z,174.77
2022-12-18T15:00:53.862Z,157.33
2022-12-18T15:03:21.763Z,164.17
2022-12-18T15:05:48.513Z,212.67
2022-12-18T15:08:26.018Z,158.03
2022-12-18T15:10:52.447Z,150.50
2022-12-18T15:13:21.991Z,114.63
2022-12-18T15:15:48.931Z,115.60
2022-12-18T15:18:16.302Z,106.50
2022-12-18T15:20:45.828Z,125.87
2022-12-18T15:23:16.415Z,110.23
2022-12-18T15:25:43.596Z,85.93
2022-12-18T15:28:28.916Z,78.60
2022-12-18T15:30:59.398Z,83.00
2022-12-18T15:33:26.973Z,83.20
2022-12-18T15:35:57.332Z,86.70
2022-12-18T15:38:23.759Z,89.63
2022-12-18T15:40:50.300Z,101.93
2022-12-18T15:43:35.152Z,105.83
2022-12-18T15:46:02.578Z,122.50
2022-12-18T15:48:29.162Z,108.00
2022-12-18T15:50:57.806Z,110.57
2022-12-18T15:53:24.574Z,109.40
2022-12-18T15:56:09.691Z,109.17
2022-12-18T15:58:36.973Z,110.73
2022-12-18T16:01:03.581Z,111.60
2022-12-18T16:03:30.182Z,115.00
2022-12-18T16:05:56.925Z,122.23
2022-12-18T16:08:24.847Z,122.33
2022-12-18T16:10:51.292Z,113.83
2022-12-18T16:13:17.928Z,124.33
2022-12-18T16:15:44.416Z,110.80
2022-12-18T16:18:10.902Z,100.13
2022-12-18T16:20:37.362Z,114.23
2022-12-18T16:23:03.811Z,108.33
2022-12-18T16:25:30.289Z,111.70
2022-12-18T16:27:57.069Z,115.97
2022-12-18T16:30:28.868Z,119.67
2022-12-18T16:32:59.304Z,119.40
2022-12-18T16:35:25.993Z,112.93
2022-12-18T16:37:52.454Z,120.40
2022-12-18T16:40:19.067Z,117.60
2022-12-18T16:42:46.056Z,118.50
2022-12-18T16:45:13.979Z,123.50
2022-12-18T16:47:40.619Z,116.80
2022-12-18T16:50:07.561Z,120.67
2022-12-18T16:52:34.267Z,115.37
2022-12-18T16:55:00.838Z,118.23
2022-12-18T16:57:27.354Z,120.63
2022-12-18T16:59:53.843Z,115.70
2022-12-18T17:02:23.901Z,121.77
2022-12-18T17:04:53.206Z,125.30
2022-12-18T17:07:19.695Z,128.03
2022-12-18T17:09:46.295Z,116.07
2022-12-18T17:12:13.470Z,118.63
2022-12-18T17:14:40.350Z,112.70
2022-12-18T17:17:20.766Z,113.83
2022-12-18T17:19:48.263Z,116.20
2022-12-18T17:22:14.809Z,126.60
2022-12-18T17:24:41.371Z,130.80
2022-12-18T17:27:09.108Z,133.27
2022-12-18T17:29:35.728Z,137.97
2022-12-18T17:32:02.374Z,144.27
2022-12-18T17:34:29.992Z,147.87
2022-12-18T17:36:57.391Z,137.37
2022-12-18T17:39:23.966Z,162.17
2022-12-18T17:41:50.519Z,165.77
2022-12-18T17:44:18.638Z,165.43
2022-12-18T17:46:46.338Z,130.47
2022-12-18T17:49:12.945Z,143.50
2022-12-18T17:51:41.935Z,135.43
2022-12-18T17:54:08.649Z,121.97
2022-12-18T17:56:35.130Z,99.83
2022-12-18T17:59:02.432Z,84.80
2022-12-18T18:01:28.989Z,82.87
2022-12-18T18:04:00.333Z,82.70
2022-12-18T18:06:27.006Z,87.80
2022-12-18T18:08:53.811Z,81.40
2022-12-18T18:11:39.966Z,78.83
2022-12-18T18:14:07.367Z,83.20
2022-12-18T18:16:35.224Z,85.90
2022-12-18T18:19:02.243Z,86.20
2022-12-18T18:21:28.794Z,99.73
2022-12-18T18:23:55.858Z,99.27
2022-12-18T18:26:22.547Z,93.47
2022-12-18T18:28:53.914Z,97.77
2022-12-18T18:31:21.027Z,90.63
2022-12-18T18:33:47.665Z,93.33
2022-12-18T18:36:14.580Z,89.10
2022-12-18T18:38:45.390Z,88.63
2022-12-18T18:41:14.745Z,96.97
2022-12-18T18:43:41.534Z,96.07
2022-12-18T18:46:09.572Z,98.37
2022-12-18T18:48:37.391Z,99.30
2022-12-18T18:51:06.019Z,105.33
2022-12-18T18:53:35.726Z,100.47
2022-12-18T18:56:34.833Z,93.67
2022-12-18T18:58:48.808Z,79.83
2022-12-18T19:01:16.302Z,92.27
2022-12-18T19:03:43.148Z,93.47
2022-12-18T19:06:11.484Z,86.80
2022-12-18T19:08:38.671Z,87.70
2022-12-18T19:11:26.320Z,79.30
2022-12-18T19:13:52.941Z,89.40
2022-12-18T19:16:19.561Z,92.10
2022-12-18T19:18:46.224Z,94.70
2022-12-18T19:21:12.924Z,79.40
2022-12-18T19:23:39.380Z,92.37
2022-12-18T19:26:28.871Z,80.50
2022-12-18T19:28:52.677Z,79.80
2022-12-18T19:31:24.852Z,77.80
2022-12-18T19:33:52.676Z,79.20
2022-12-18T19:36:28.746Z,80.33
2022-12-18T19:38:56.080Z,74.40
2022-12-18T19:41:22.937Z,87.53
2022-12-18T19:43:49.805Z,80.40
2022-12-18T19:46:17.344Z,86.70
2022-12-18T19:48:45.088Z,82.90
2022-12-18T19:51:13.670Z,74.53
2022-12-18T19:53:40.634Z,85.03
2022-12-18T19:56:08.018Z,68.30
2022-12-18T19:58:34.613Z,86.10
2022-12-18T20:01:01.279Z,76.57
2022-12-18T20:03:32.504Z,86.23
2022-12-18T20:06:12.631Z,72.57
2022-12-18T20:08:39.407Z,73.40
2022-12-18T20:11:05.915Z,78.30
2022-12-18T20:13:32.471Z,63.00
2022-12-18T20:15:59.355Z,71.87
2022-12-18T20:18:26.131Z,62.73
2022-12-18T20:20:53.086Z,73.60
2022-12-18T20:23:22.802Z,77.73
2022-12-18T20:25:49.541Z,85.17
2022-12-18T20:28:16.041Z,89.80
2022-12-18T20:30:42.488Z,94.57
2022-12-18T20:33:09.251Z,100.70
2022-12-18T20:35:35.694Z,89.80
2022-12-18T20:38:02.663Z,95.63
2022-12-18T20:40:30.935Z,100.00
2022-12-18T20:42:57.453Z,88.40
2022-12-18T20:45:23.959Z,89.80
2022-12-18T20:47:50.435Z,98.20
2022-12-18T20:50:17.002Z,106.43
2022-12-18T20:52:43.492Z,93.43
2022-12-18T20:55:10.137Z,86.80
2022-12-18T20:57:36.875Z,83.70
2022-12-18T21:00:05.328Z,84.83
2022-12-18T21:02:32.052Z,79.37
2022-12-18T21:04:59.199Z,68.63
2022-12-18T21:07:27.440Z,73.33
2022-12-18T21:09:54.238Z,65.60
2022-12-18T21:12:44.024Z,74.57
2022-12-18T21:15:14.982Z,72.13
2022-12-18T21:17:44.791Z,69.63
2022-12-18T21:20:17.487Z,60.33
2022-12-18T21:22:45.064Z,67.43
2022-12-18T21:25:11.563Z,61.07
2022-12-18T21:27:38.146Z,70.87
2022-12-18T21:30:04.838Z,69.10
2022-12-18T21:32:33.414Z,65.77
2022-12-18T21:35:00.295Z,72.37
2022-12-18T21:37:26.818Z,63.47
2022-12-18T21:39:53.340Z,67.50
2022-12-18T21:42:38.658Z,65.47
2022-12-18T21:45:05.274Z,64.43
2022-12-18T21:47:31.761Z,64.50
2022-12-18T21:49:58.257Z,62.53
2022-12-18T21:52:32.196Z,63.17
2022-12-18T21:55:04.571Z,63.47
2022-12-18T21:57:34.736Z,64.57
2022-12-18T22:00:02.263Z,66.77
2022-12-18T22:02:29.299Z,73.60
2022-12-18T22:04:55.968Z,63.20
2022-12-18T22:07:23.086Z,63.73
2022-12-18T22:09:50.674Z,64.30
2022-12-18T22:12:35.452Z,65.50
2022-12-18T22:15:03.863Z,63.73
2022-12-18T22:17:30.354Z,64.60
2022-12-18T22:19:57.241Z,76.47
2022-12-18T22:22:23.974Z,71.53
2022-12-18T22:24:50.478Z,61.57
2022-12-18T22:27:16.962Z,70.30
2022-12-18T22:30:02.386Z,66.40
2022-12-18T22:32:31.366Z,74.23
2022-12-18T22:35:06.905Z,62.97
2022-12-18T22:37:35.836Z,60.67
2022-12-18T22:40:04.013Z,68.77
2022-12-18T22:42:31.165Z,66.60
2022-12-18T22:44:57.679Z,72.63
2022-12-18T22:47:29.214Z,76.77
2022-12-18T22:49:56.105Z,67.33
2022-12-18T22:52:24.830Z,66.43
2022-12-18T22:54:53.268Z,68.30
2022-12-18T22:57:20.700Z,69.17
2022-12-18T22:59:47.146Z,75.70
2022-12-18T23:02:13.768Z,73.93
2022-12-18T23:04:40.306Z,65.53
2022-12-18T23:07:07.192Z,72.53
2022-12-18T23:09:33.759Z,71.97
2022-12-18T23:12:00.243Z,66.37
2022-12-18T23:14:26.991Z,66.63
2022-12-18T23:16:53.467Z,68.50
2022-12-18T23:19:20.227Z,62.33
2022-12-18T23:21:46.760Z,72.67
2022-12-18T23:24:13.673Z,66.23
2022-12-18T23:26:40.135Z,70.63
2022-12-18T23:29:06.638Z,63.20
2022-12-18T23:31:34.139Z,70.67
2022-12-18T23:34:01.018Z,60.67
2022-12-18T23:36:27.547Z,60.90
2022-12-18T23:38:55.983Z,60.93
2022-12-18T23:41:23.014Z,58.07
2022-12-18T23:43:49.465Z,59.53
2022-12-18T23:46:20.128Z,63.30
2022-12-18T23:48:46.748Z,66.77
2022-12-18T23:51:13.915Z,63.77
2022-12-18T23:53:40.460Z,62.17
2022-12-18T23:56:07.058Z,57.37
2022-12-18T23:58:34.305Z,61.43
